HEAR

El Arish International Airport

El Arish, Egypt
METAR HEAR 211200Z 34003KT CAVOK 25/13 Q1009 NOSIG
Observed Flight Rules
Feb-21 @ 12:00 UTC (an hour ago) Visual Flight Rules
Wind Visibility Clouds
340° at 3 knots 10,000+ meters
  • Clear skies
Temperatures Readings
Current 25°C / 77°F
Dewpoint 13°C / 55°F
Humidity 47%
Altimeter 29.79" Hg
Pressure 1009 hPa
Elevation 32
METAR HEAR 211200Z 34003KT CAVOK 25/13 Q1009 NOSIG
Observed Flight Rules
Feb-21 @ 12:00 UTC
(an hour ago)
VFR
Wind Visibility
340° at 3 knots 10,000+ meters
Clouds
  • Clear skies
Temperature Dewpoint
25°C / 77°F 13°C / 55°F
Humidity Altimeter Pressure
47% 29.79" Hg 1009 hPa